createdAt,value
2022-08-07T00:00:39.937Z,16.76
2022-08-07T00:03:09.052Z,16.72
2022-08-07T00:05:37.298Z,16.72
2022-08-07T00:08:07.767Z,16.68
2022-08-07T00:10:48.206Z,16.59
2022-08-07T00:13:26.658Z,16.53
2022-08-07T00:15:55.312Z,16.56
2022-08-07T00:18:25.239Z,16.55
2022-08-07T00:20:54.931Z,16.53
2022-08-07T00:23:24.844Z,16.58
2022-08-07T00:26:00.140Z,16.60
2022-08-07T00:28:33.975Z,16.46
2022-08-07T00:31:05.942Z,16.45
2022-08-07T00:33:35.086Z,16.45
2022-08-07T00:36:03.705Z,16.48
2022-08-07T00:38:33.289Z,16.48
2022-08-07T00:41:03.577Z,16.44
2022-08-07T00:44:01.684Z,16.34
2022-08-07T00:46:20.237Z,16.27
2022-08-07T00:48:51.729Z,16.23
2022-08-07T00:51:19.880Z,16.23
2022-08-07T00:53:50.834Z,16.31
2022-08-07T00:56:30.162Z,16.28
2022-08-07T00:58:58.613Z,16.19
2022-08-07T01:01:26.922Z,16.18
2022-08-07T01:04:00.356Z,16.17
2022-08-07T01:06:29.739Z,16.17
2022-08-07T01:09:01.063Z,16.16
2022-08-07T01:12:09.224Z,16.16
2022-08-07T01:14:21.337Z,16.16
2022-08-07T01:16:56.917Z,16.12
2022-08-07T01:19:27.430Z,16.10
2022-08-07T01:22:03.299Z,16.07
2022-08-07T01:24:32.024Z,16.06
2022-08-07T01:27:01.424Z,16.00
2022-08-07T01:29:33.921Z,15.93
2022-08-07T01:32:05.186Z,15.92
2022-08-07T01:34:34.517Z,15.89
2022-08-07T01:37:04.268Z,15.93
2022-08-07T01:39:40.360Z,15.94
2022-08-07T01:42:38.114Z,15.85
2022-08-07T01:45:04.675Z,15.62
2022-08-07T01:48:20.892Z,15.60
2022-08-07T01:50:28.909Z,15.64
2022-08-07T01:53:00.358Z,15.64
2022-08-07T01:55:33.328Z,15.64
2022-08-07T01:58:27.242Z,15.63
2022-08-07T02:01:25.418Z,15.61
2022-08-07T02:03:52.119Z,15.45
2022-08-07T02:06:31.294Z,15.52
2022-08-07T02:09:04.351Z,15.49
2022-08-07T02:12:04.139Z,15.49
2022-08-07T02:14:40.159Z,15.32
2022-08-07T02:17:11.092Z,15.40
2022-08-07T02:20:07.835Z,15.46
2022-08-07T02:22:31.728Z,15.51
2022-08-07T02:25:01.803Z,15.50
2022-08-07T02:27:36.509Z,15.46
2022-08-07T02:30:10.768Z,15.43
2022-08-07T02:33:08.893Z,15.44
2022-08-07T02:36:28.166Z,15.40
2022-08-07T02:38:28.116Z,15.37
2022-08-07T02:41:04.055Z,15.41
2022-08-07T02:43:33.214Z,15.36
2022-08-07T02:46:03.668Z,15.37
2022-08-07T02:48:31.906Z,15.36
2022-08-07T02:51:04.407Z,15.37
2022-08-07T02:53:38.552Z,15.34
2022-08-07T02:56:20.963Z,15.29
2022-08-07T02:58:54.253Z,15.34
2022-08-07T03:01:36.380Z,15.33
2022-08-07T03:04:07.821Z,15.31
2022-08-07T03:06:44.722Z,15.28
2022-08-07T03:09:14.979Z,15.23
2022-08-07T03:12:06.626Z,15.21
2022-08-07T03:14:37.397Z,15.18
2022-08-07T03:17:08.715Z,15.20
2022-08-07T03:19:37.600Z,15.18
2022-08-07T03:22:07.104Z,15.16
2022-08-07T03:24:36.646Z,15.16
2022-08-07T03:27:08.945Z,15.16
2022-08-07T03:29:46.277Z,15.17
2022-08-07T03:32:20.246Z,15.16
2022-08-07T03:35:16.583Z,15.10
2022-08-07T03:37:46.289Z,15.14
2022-08-07T03:40:22.774Z,15.14
2022-08-07T03:42:53.285Z,15.14
2022-08-07T03:45:29.987Z,15.13
2022-08-07T03:47:59.955Z,15.12
2022-08-07T03:50:29.180Z,15.10
2022-08-07T03:52:59.775Z,15.02
2022-08-07T03:55:52.772Z,15.01
2022-08-07T03:59:06.751Z,15.03
2022-08-07T04:01:11.706Z,14.98
2022-08-07T04:03:53.465Z,15.01
2022-08-07T04:06:37.224Z,14.97
2022-08-07T04:09:08.544Z,15.02
2022-08-07T04:12:26.859Z,15.03
2022-08-07T04:14:38.566Z,15.09
2022-08-07T04:17:20.066Z,15.11
2022-08-07T04:20:01.149Z,15.11
2022-08-07T04:22:30.073Z,15.15
2022-08-07T04:25:01.032Z,15.16
2022-08-07T04:27:35.882Z,15.12
2022-08-07T04:30:21.685Z,15.13
2022-08-07T04:32:58.849Z,15.15
2022-08-07T04:35:27.044Z,15.17
2022-08-07T04:38:03.368Z,15.20
2022-08-07T04:40:34.884Z,15.17
2022-08-07T04:43:03.524Z,15.16
2022-08-07T04:45:57.466Z,15.24
2022-08-07T04:48:36.705Z,15.34
2022-08-07T04:51:09.832Z,15.33
2022-08-07T04:54:05.683Z,15.30
2022-08-07T04:58:09.705Z,15.29
2022-08-07T05:00:11.304Z,15.35
2022-08-07T05:02:30.671Z,15.41
2022-08-07T05:05:11.526Z,15.49
2022-08-07T05:07:58.005Z,15.55
2022-08-07T05:10:32.011Z,15.55
2022-08-07T05:14:44.461Z,15.61
2022-08-07T05:15:57.559Z,15.64
2022-08-07T05:18:30.628Z,15.61
2022-08-07T05:21:03.841Z,15.71
2022-08-07T05:23:37.446Z,15.73
2022-08-07T05:26:11.551Z,15.77
2022-08-07T05:28:49.944Z,15.84
2022-08-07T05:31:19.753Z,15.84
2022-08-07T05:33:51.272Z,15.93
2022-08-07T05:36:35.412Z,15.98
2022-08-07T05:40:07.039Z,16.11
2022-08-07T05:42:01.044Z,16.22
2022-08-07T05:44:36.614Z,16.30
2022-08-07T05:47:11.765Z,16.35
2022-08-07T05:49:50.390Z,16.42
2022-08-07T05:52:20.349Z,16.52
2022-08-07T05:54:55.352Z,16.55
2022-08-07T05:57:30.031Z,16.61
2022-08-07T06:00:01.288Z,16.69
2022-08-07T06:02:32.580Z,16.82
2022-08-07T06:05:07.141Z,16.95
2022-08-07T06:08:13.790Z,16.99
2022-08-07T06:10:25.099Z,17.12
2022-08-07T06:12:53.133Z,17.20
2022-08-07T06:15:41.884Z,17.28
2022-08-07T06:18:13.994Z,17.33
2022-08-07T06:20:50.804Z,17.39
2022-08-07T06:24:37.936Z,17.50
2022-08-07T06:26:27.610Z,17.55
2022-08-07T06:28:59.761Z,17.60
2022-08-07T06:31:46.692Z,17.71
2022-08-07T06:34:20.530Z,17.87
2022-08-07T06:36:51.993Z,17.98
2022-08-07T06:40:15.819Z,18.03
2022-08-07T06:42:12.472Z,18.14
2022-08-07T06:44:43.341Z,18.18
2022-08-07T06:47:15.631Z,18.13
2022-08-07T06:49:51.920Z,18.23
2022-08-07T06:52:31.429Z,18.43
2022-08-07T06:55:32.526Z,19.12
2022-08-07T06:57:57.528Z,21.67
2022-08-07T07:00:29.136Z,23.71
2022-08-07T07:03:01.378Z,25.06
2022-08-07T07:06:03.376Z,26.76
2022-08-07T07:08:30.873Z,27.34
2022-08-07T07:11:00.915Z,28.15
2022-08-07T07:13:56.672Z,29.10
2022-08-07T07:16:30.406Z,30.17
2022-08-07T07:19:11.395Z,29.81
2022-08-07T07:22:12.065Z,30.31
2022-08-07T07:24:58.346Z,30.82
2022-08-07T07:27:56.368Z,31.32
2022-08-07T07:30:37.958Z,31.78
2022-08-07T07:33:07.747Z,32.17
2022-08-07T07:35:44.119Z,32.24
2022-08-07T07:38:26.602Z,32.15
2022-08-07T07:41:02.593Z,32.45
2022-08-07T07:44:14.637Z,33.11
2022-08-07T07:46:39.852Z,33.19
2022-08-07T07:50:33.160Z,33.36
2022-08-07T07:52:06.257Z,32.95
2022-08-07T07:54:37.057Z,33.24
2022-08-07T07:57:08.619Z,33.48
2022-08-07T07:59:51.984Z,32.96
2022-08-07T08:02:33.950Z,33.09
2022-08-07T08:05:11.526Z,33.74
2022-08-07T08:08:00.083Z,34.28
2022-08-07T08:10:35.654Z,34.47
2022-08-07T08:13:10.611Z,34.46
2022-08-07T08:15:57.697Z,34.37
2022-08-07T08:18:30.067Z,34.77
2022-08-07T08:21:01.463Z,35.17
2022-08-07T08:23:49.399Z,35.10
2022-08-07T08:26:35.915Z,35.09
2022-08-07T08:29:06.299Z,35.59
2022-08-07T08:32:04.851Z,35.73
2022-08-07T08:34:29.684Z,35.61
2022-08-07T08:36:58.762Z,35.31
2022-08-07T08:39:39.848Z,35.74
2022-08-07T08:42:25.712Z,36.30
2022-08-07T08:45:04.497Z,35.56
2022-08-07T08:47:47.418Z,35.51
2022-08-07T08:50:34.881Z,36.31
2022-08-07T08:53:16.663Z,36.40
2022-08-07T08:55:54.372Z,36.49
2022-08-07T08:58:36.128Z,36.65
2022-08-07T09:01:15.008Z,35.38
2022-08-07T09:03:55.294Z,35.18
2022-08-07T09:06:36.894Z,34.57
2022-08-07T09:09:20.942Z,34.46
2022-08-07T09:12:08.971Z,35.09
2022-08-07T09:16:25.455Z,35.50
2022-08-07T09:18:15.686Z,35.88
2022-08-07T09:20:58.027Z,35.84
2022-08-07T09:24:31.835Z,35.95
2022-08-07T09:26:30.372Z,35.60
2022-08-07T09:30:01.672Z,35.88
2022-08-07T09:32:00.655Z,35.63
2022-08-07T09:34:37.388Z,36.17
2022-08-07T09:37:12.842Z,36.15
2022-08-07T09:39:57.844Z,35.18
2022-08-07T09:42:42.526Z,35.01
2022-08-07T09:47:52.191Z,34.79
2022-08-07T09:48:18.992Z,33.91
2022-08-07T09:51:01.116Z,32.85
2022-08-07T09:53:41.256Z,31.13
2022-08-07T09:56:41.830Z,30.37
2022-08-07T09:59:37.056Z,30.04
2022-08-07T10:02:34.913Z,29.60
2022-08-07T10:05:59.461Z,28.34
2022-08-07T10:08:45.319Z,28.85
2022-08-07T10:12:01.661Z,28.81
2022-08-07T10:14:55.218Z,28.78
2022-08-07T10:18:00.261Z,29.07
2022-08-07T10:20:39.423Z,29.20
2022-08-07T10:24:06.372Z,29.11
2022-08-07T10:26:30.401Z,28.87
2022-08-07T10:29:14.838Z,28.63
2022-08-07T10:32:01.053Z,28.17
2022-08-07T10:34:41.447Z,28.66
2022-08-07T10:37:26.591Z,28.34
2022-08-07T10:40:20.949Z,27.32
2022-08-07T10:42:59.695Z,27.76
2022-08-07T10:45:44.626Z,28.25
2022-08-07T10:48:34.576Z,27.77
2022-08-07T10:51:16.831Z,27.85
2022-08-07T10:54:07.950Z,27.97
2022-08-07T10:56:47.469Z,27.77
2022-08-07T10:59:30.356Z,27.95
2022-08-07T11:02:11.810Z,27.64
2022-08-07T11:05:03.169Z,27.16
2022-08-07T11:08:00.284Z,27.11
2022-08-07T11:10:37.264Z,27.18
2022-08-07T11:13:16.763Z,26.96
2022-08-07T11:16:09.689Z,26.53
2022-08-07T11:18:42.292Z,26.35
2022-08-07T11:21:18.829Z,26.54
2022-08-07T11:23:55.268Z,26.30
2022-08-07T11:26:29.399Z,26.16
2022-08-07T11:29:05.735Z,26.31
2022-08-07T11:31:51.860Z,26.57
2022-08-07T11:34:25.524Z,26.72
2022-08-07T11:37:03.852Z,26.91
2022-08-07T11:39:59.261Z,26.97
2022-08-07T11:42:40.097Z,27.03
2022-08-07T11:45:23.716Z,26.77
2022-08-07T11:48:29.706Z,26.33
2022-08-07T11:51:41.520Z,26.05
2022-08-07T11:54:36.856Z,25.77
2022-08-07T11:57:18.914Z,25.67
2022-08-07T12:00:11.298Z,25.94
2022-08-07T12:03:41.510Z,25.79
2022-08-07T12:06:38.882Z,25.59
2022-08-07T12:09:16.462Z,25.47
2022-08-07T12:12:09.501Z,25.24
2022-08-07T12:14:53.791Z,25.58
2022-08-07T12:17:35.571Z,25.75
2022-08-07T12:20:20.955Z,25.68
2022-08-07T12:23:17.898Z,25.65
2022-08-07T12:26:05.623Z,25.73
2022-08-07T12:28:53.178Z,25.71
2022-08-07T12:31:53.272Z,25.71
2022-08-07T12:34:21.168Z,25.80
2022-08-07T12:36:53.529Z,25.85
2022-08-07T12:39:43.916Z,25.72
2022-08-07T12:42:16.240Z,25.82
2022-08-07T12:44:48.527Z,25.88
2022-08-07T12:47:30.519Z,25.91
2022-08-07T12:50:39.537Z,26.00
2022-08-07T12:53:01.148Z,25.92
2022-08-07T12:55:40.825Z,25.78
2022-08-07T12:58:13.131Z,25.84
2022-08-07T13:00:51.602Z,25.98
2022-08-07T13:03:56.248Z,26.11
2022-08-07T13:07:00.637Z,26.22
2022-08-07T13:10:18.963Z,26.30
2022-08-07T13:12:52.240Z,26.27
2022-08-07T13:15:31.868Z,26.19
2022-08-07T13:18:26.351Z,25.93
2022-08-07T13:21:00.804Z,25.96
2022-08-07T13:24:01.020Z,25.87
2022-08-07T13:26:32.537Z,25.63
2022-08-07T13:29:10.988Z,25.42
2022-08-07T13:31:57.327Z,25.51
2022-08-07T13:34:39.346Z,25.73
2022-08-07T13:37:25.848Z,25.95
2022-08-07T13:40:35.265Z,25.96
2022-08-07T13:42:59.291Z,26.02
2022-08-07T13:46:20.770Z,26.13
2022-08-07T13:48:33.807Z,26.27
2022-08-07T13:51:27.616Z,26.27
2022-08-07T13:54:00.367Z,25.98
2022-08-07T13:56:35.602Z,25.72
2022-08-07T13:59:12.839Z,25.54
2022-08-07T14:01:51.034Z,25.63
2022-08-07T14:04:29.737Z,25.48
2022-08-07T14:07:09.516Z,25.05
2022-08-07T14:10:17.713Z,25.13
2022-08-07T14:12:41.941Z,25.23
2022-08-07T14:15:28.186Z,25.48
2022-08-07T14:18:24.163Z,25.52
2022-08-07T14:21:00.233Z,25.58
2022-08-07T14:23:59.933Z,25.81
2022-08-07T14:26:32.504Z,25.92
2022-08-07T14:30:02.915Z,25.82
2022-08-07T14:31:57.866Z,25.78
2022-08-07T14:34:30.875Z,25.57
2022-08-07T14:37:03.133Z,25.65
2022-08-07T14:40:18.045Z,25.90
2022-08-07T14:42:26.229Z,26.03
2022-08-07T14:44:59.917Z,26.10
2022-08-07T14:47:47.712Z,25.77
2022-08-07T14:50:20.483Z,25.75
2022-08-07T14:52:50.233Z,25.59
2022-08-07T14:55:19.416Z,25.63
2022-08-07T14:57:55.221Z,25.51
2022-08-07T15:00:40.584Z,25.32
2022-08-07T15:06:03.805Z,25.03
2022-08-07T15:08:35.077Z,25.01
2022-08-07T15:11:54.080Z,24.87
2022-08-07T15:14:10.992Z,24.92
2022-08-07T15:16:54.501Z,25.03
2022-08-07T15:20:16.164Z,25.11
2022-08-07T15:22:31.059Z,25.00
2022-08-07T15:28:26.545Z,24.88
2022-08-07T15:31:04.739Z,24.93
2022-08-07T15:33:35.983Z,25.07
2022-08-07T15:36:07.757Z,25.24
2022-08-07T15:38:51.784Z,25.38
2022-08-07T15:42:43.603Z,25.45
2022-08-07T15:44:23.835Z,25.57
2022-08-07T15:46:57.843Z,25.59
2022-08-07T15:50:05.660Z,25.53
2022-08-07T15:52:30.634Z,25.32
2022-08-07T15:55:04.243Z,25.31
2022-08-07T15:57:47.398Z,25.24
2022-08-07T16:00:31.564Z,25.17
2022-08-07T16:03:05.768Z,25.18
2022-08-07T16:05:36.153Z,25.16
2022-08-07T16:08:32.013Z,25.06
2022-08-07T16:11:04.352Z,24.97
2022-08-07T16:14:10.611Z,24.90
2022-08-07T16:16:56.760Z,24.82
2022-08-07T16:19:59.133Z,24.86
2022-08-07T16:22:55.765Z,24.81
2022-08-07T16:25:55.425Z,24.70
2022-08-07T16:30:08.534Z,24.70
2022-08-07T16:31:50.797Z,24.63
2022-08-07T16:34:34.296Z,24.60
2022-08-07T16:38:05.714Z,24.69
2022-08-07T16:41:01.502Z,24.71
2022-08-07T16:44:03.674Z,24.51
2022-08-07T16:47:05.985Z,24.52
2022-08-07T16:50:20.231Z,24.43
2022-08-07T16:54:02.638Z,24.33
2022-08-07T16:56:20.092Z,24.33
2022-08-07T16:59:14.265Z,24.34
2022-08-07T17:01:57.249Z,24.40
2022-08-07T17:04:37.011Z,24.35
2022-08-07T17:07:28.233Z,24.28
2022-08-07T17:10:32.220Z,24.19
2022-08-07T17:13:17.881Z,24.13
2022-08-07T17:15:53.903Z,24.05
2022-08-07T17:18:32.232Z,24.03
2022-08-07T17:21:02.918Z,23.99
2022-08-07T17:23:58.005Z,23.96
2022-08-07T17:26:48.149Z,23.96
2022-08-07T17:30:15.973Z,23.80
2022-08-07T17:32:30.687Z,23.79
2022-08-07T17:35:51.604Z,23.68
2022-08-07T17:38:33.129Z,23.55
2022-08-07T17:42:00.940Z,23.40
2022-08-07T17:44:02.876Z,23.39
2022-08-07T17:46:41.643Z,23.38
2022-08-07T17:49:23.137Z,23.34
2022-08-07T17:52:00.335Z,23.32
2022-08-07T17:54:54.102Z,23.29
2022-08-07T17:57:56.345Z,23.27
2022-08-07T18:00:27.576Z,23.09
2022-08-07T18:03:18.488Z,23.09
2022-08-07T18:06:02.209Z,23.06
2022-08-07T18:08:35.399Z,22.97
2022-08-07T18:12:07.996Z,22.92
2022-08-07T18:14:06.706Z,22.95
2022-08-07T18:16:37.356Z,22.93
2022-08-07T18:21:10.555Z,22.92
2022-08-07T18:22:29.647Z,22.87
2022-08-07T18:25:19.033Z,22.79
2022-08-07T18:28:09.458Z,22.81
2022-08-07T18:30:50.855Z,22.85
2022-08-07T18:33:55.749Z,22.75
2022-08-07T18:36:33.793Z,22.73
2022-08-07T18:40:08.307Z,22.67
2022-08-07T18:42:13.362Z,22.59
2022-08-07T18:45:45.075Z,22.53
2022-08-07T18:48:00.986Z,22.48
2022-08-07T18:50:46.518Z,22.35
2022-08-07T18:53:36.941Z,22.39
2022-08-07T18:56:15.065Z,22.39
2022-08-07T18:59:47.115Z,22.28
2022-08-07T19:02:31.729Z,22.16
2022-08-07T19:05:14.954Z,22.17
2022-08-07T19:07:58.029Z,22.17
2022-08-07T19:10:51.835Z,22.09
2022-08-07T19:13:25.367Z,21.96
2022-08-07T19:17:00.832Z,21.92
2022-08-07T19:19:01.228Z,21.84
2022-08-07T19:21:47.802Z,21.75
2022-08-07T19:24:35.269Z,21.69
2022-08-07T19:28:56.655Z,21.68
2022-08-07T19:31:04.231Z,21.57
2022-08-07T19:32:59.263Z,21.54
2022-08-07T19:35:33.191Z,21.49
2022-08-07T19:38:03.651Z,21.42
2022-08-07T19:40:50.317Z,21.39
2022-08-07T19:43:43.990Z,21.32
2022-08-07T19:46:12.099Z,21.25
2022-08-07T19:48:44.795Z,21.23
2022-08-07T19:51:52.839Z,21.20
2022-08-07T19:54:34.444Z,21.12
2022-08-07T19:58:01.571Z,21.05
2022-08-07T19:59:59.520Z,21.01
2022-08-07T20:02:32.586Z,20.97
2022-08-07T20:05:07.743Z,20.94
2022-08-07T20:07:46.496Z,20.91
2022-08-07T20:10:35.951Z,20.87
2022-08-07T20:13:22.985Z,20.81
2022-08-07T20:15:53.959Z,20.73
2022-08-07T20:18:33.808Z,20.71
2022-08-07T20:21:21.063Z,20.63
2022-08-07T20:23:54.273Z,20.61
2022-08-07T20:26:29.886Z,20.54
2022-08-07T20:29:10.704Z,20.53
2022-08-07T20:31:52.605Z,20.49
2022-08-07T20:34:49.355Z,20.42
2022-08-07T20:37:16.097Z,20.41
2022-08-07T20:40:04.275Z,20.36
2022-08-07T20:42:35.719Z,20.34
2022-08-07T20:45:33.371Z,20.29
2022-08-07T20:47:58.561Z,20.25
2022-08-07T20:50:30.585Z,20.26
2022-08-07T20:53:00.900Z,20.18
2022-08-07T20:55:31.938Z,20.17
2022-08-07T20:58:08.882Z,20.14
2022-08-07T21:00:44.393Z,20.08
2022-08-07T21:03:15.588Z,20.05
2022-08-07T21:05:55.982Z,20.02
2022-08-07T21:08:36.702Z,19.98
2022-08-07T21:11:10.816Z,19.91
2022-08-07T21:14:16.325Z,19.89
2022-08-07T21:16:56.274Z,19.84
2022-08-07T21:19:32.094Z,19.79
2022-08-07T21:22:19.530Z,19.69
2022-08-07T21:25:11.682Z,19.67
2022-08-07T21:28:02.181Z,19.75
2022-08-07T21:30:48.120Z,19.71
2022-08-07T21:33:22.722Z,19.68
2022-08-07T21:36:06.033Z,19.63
2022-08-07T21:38:49.944Z,19.57
2022-08-07T21:41:28.351Z,19.51
2022-08-07T21:44:14.597Z,19.45
2022-08-07T21:47:01.061Z,19.42
2022-08-07T21:49:40.812Z,19.39
2022-08-07T21:52:33.943Z,19.37
2022-08-07T21:55:11.225Z,19.35
2022-08-07T21:57:52.842Z,19.35
2022-08-07T22:00:25.268Z,19.30
2022-08-07T22:03:07.769Z,19.23
2022-08-07T22:05:48.226Z,19.24
2022-08-07T22:08:20.936Z,19.17
2022-08-07T22:10:50.993Z,19.21
2022-08-07T22:13:24.631Z,19.18
2022-08-07T22:16:42.255Z,19.15
2022-08-07T22:19:09.672Z,19.11
2022-08-07T22:22:04.641Z,19.11
2022-08-07T22:24:35.728Z,19.07
2022-08-07T22:27:10.322Z,19.02
2022-08-07T22:29:50.216Z,18.97
2022-08-07T22:32:26.298Z,18.98
2022-08-07T22:34:56.183Z,18.99
2022-08-07T22:38:02.852Z,18.99
2022-08-07T22:40:29.643Z,18.96
2022-08-07T22:43:04.311Z,18.95
2022-08-07T22:46:40.901Z,18.90
2022-08-07T22:48:55.345Z,18.91
2022-08-07T22:51:54.193Z,18.91
2022-08-07T22:54:48.746Z,18.83
2022-08-07T22:57:37.347Z,18.79
2022-08-07T23:00:16.030Z,18.73
2022-08-07T23:03:03.670Z,18.68
2022-08-07T23:06:06.895Z,18.73
2022-08-07T23:10:04.111Z,18.71
2022-08-07T23:12:20.973Z,18.68
2022-08-07T23:16:04.884Z,18.65
2022-08-07T23:18:25.850Z,18.62
2022-08-07T23:21:06.920Z,18.62
2022-08-07T23:24:06.357Z,18.65
2022-08-07T23:27:03.897Z,18.55
2022-08-07T23:30:36.031Z,18.53
2022-08-07T23:34:36.480Z,18.49
2022-08-07T23:35:55.767Z,18.50
2022-08-07T23:38:36.856Z,18.44
2022-08-07T23:41:33.555Z,18.42
2022-08-07T23:44:29.464Z,18.40
2022-08-07T23:47:21.223Z,18.37
2022-08-07T23:50:16.370Z,18.29
2022-08-07T23:53:02.038Z,18.31
2022-08-07T23:55:47.049Z,18.27
2022-08-07T23:58:27.135Z,18.15
